Bayliss, California
Current Conditions -  °F | °C
As of 1:35 AM on Saturday 25 Oct 2014 (Local Time) from KCIC Reporting Station
Overcast Overcast  
Wind Chill: 63°   Ceiling: 5000
Heat Index: 63°   Visibility: 10mi
Dew Point: 50°   Wind: 20mph
Humidity: 63%   Direction: 140°SE
Pressure: 29.89"   Gusts: 25mph
Location:  39.6048°N, 122.032°W
Report Text: KCIC 250835Z AUTO 14017G22KT 10SM OVC050 17/10 A2989 RMK AO1
Loading
Personal Weather Stations






























Interactive Weather Map
Tropical Storm Tracking
New forecast layout! Learn more

10-Day Weather Forecast

Advertisements
Track Severe Weather on mobile